Utilizamos cookies propias y de terceros para ofrecer nuestros servicios, recoger información estadística e incluir publicidad. Si continua navegando acepta su instalación y uso. Puede cambiar la configuración u obtener más información en nuestra ACEPTAR | Más información

 INFORMACIÓN METAR y TAF
METAR FOR LEBA
ADDS - METARS form results

(0845 UTC 21 August 2019)
Data provider http://aviationweather.gov/metar/data/
 
METAR text: LEBA 210830Z 10003KT 050V150 CAVOK 27/11 Q1017
Conditions at: LEBA (CORDOBA AIRPORT , ES) observed 0830 UTC 21 August 2019
Temperature: 27.0°C (81°F)
Dewpoint: 11.0°C (52°F) [RH = 37%]
Pressure (altimeter): 30.03 inches Hg (1017.0 mb)
Winds: from the E (100 degrees) at 3 MPH (3 knots; 1.5 m/s)
Visibility: 6 or more miles (10+ km)
Ceiling: ceiling and visibility are OK
Clouds: unknown
Weather: no significant weather observed at this time

METAR text: LEBA 210800Z VRB02KT CAVOK 26/10 Q1017
Conditions at: LEBA (CORDOBA AIRPORT , ES) observed 0800 UTC 21 August 2019
Temperature: 26.0°C (79°F)
Dewpoint: 10.0°C (50°F) [RH = 37%]
Pressure (altimeter): 30.03 inches Hg (1017.0 mb)
Winds: variable direction winds at 2 MPH (2 knots; 1.0 m/s)
Visibility: 6 or more miles (10+ km)
Ceiling: ceiling and visibility are OK
Clouds: unknown
Weather: no significant weather observed at this time

Forecast for: LEBA (CORDOBA AIRPORT , ES)
Text: TAF LEBA 210800Z 2109/2118 09003KT CAVOK
Forecast period: 0900 to 1600 UTC 21 August 2019
Forecast type: FROM: standard forecast or significant change
Winds: from the E (90 degrees) at 3 MPH (3 knots; 1.5 m/s)
Visibility: 6 or more miles 10+ km)
Ceiling: unknown
Clouds: missing
Weather: NSW  (no significant weather)
Text: BECMG 2116/2118 22010KT
Forecast period: 1600 to 1800 UTC 21 August 2019
Forecast type: BECOMING: Conditions expected to become as follows by 1800 UTC 21 August 2019
Winds: from the SW (220 degrees) at 12 MPH (10 knots; 5.1 m/s)
Visibility: 6 or more miles 10+ km)
Ceiling: unknown
Clouds: missing
Weather: NSW  (no significant weather)

 MAPA DE AEROPUERTO

 INFORMACIÓN DE PISTA
Pista 03 Longitud 4527 ft Ancho 148 ft
Elevación 293 ft Umbral desplazado 0 ft Rumbo de pista 29
Pista 21 Longitud 4527 ft Ancho 148 ft
Elevación 297 ft Umbral desplazado 0 ft Rumbo de pista 209

 FRECUANCIAS DEL AEROPUERTO
Tipo CTAF Nombre CTAF Frecuencia 118.3 MHZ

 RADIO AYUDAS DEL AEROPUERTO
Tipo VOR-DME Nombre Cordoba Frecuencia 112400 KHZ
Tipo NDB Nombre Cordoba Frecuencia 366 KHZ

© Todos los derechos reservados. Aviso Legal | Política de Privacidad | Política de cookies |